Mount Blanchard, OH (45867)

1:51 AM EST on February 10, 2016 (GMT -0500)
Carey High School | | Change Station
CLOSE
Current Station
Personal Weather Station
Location: Carey, OH
Elevation: 823 ft
Nearby Weather Stations

Elev 823 ft 40.95 °N, 83.38 °W | Updated 4 seconds ago

Overcast
Overcast
20.8 °F
Feels Like 11 °F
N
8.7
Wind Variable Wind from West
Gusts 9.8 mph

Today
High -- | Low -- °F
--% Chance of Precip.
Yesterday
High -- | Low -- °F
Precip. -- in
Pressure 29.81 in
Visibility 10.0 miles
Clouds Mostly Cloudy 1800 ft
Overcast 4400 ft
Windchill 11 °F
Dew Point 13 °F
Humidity 72%
Rainfall 0.00 in
Snow Depth Not available.
7:35 AM 6:02 PM
Waxing Crescent, 4% visible
METAR KFDY 100553Z AUTO 26019G25KT 10SM BKN018 OVC044 M06/M09 A2979 RMK AO2 SLP095 T10611094 11022 21061 52003 TSNO
Pressure 29.81 in
Visibility 10.0 miles
Clouds Mostly Cloudy 1800 ft
Overcast 4400 ft
Windchill 11 °F
Dew Point 13 °F
Humidity 72%
Rainfall 0.00 in
Snow Depth Not available.
7:35 AM 6:02 PM
Waxing Crescent, 4% visible
METAR KFDY 100553Z AUTO 26019G25KT 10SM BKN018 OVC044 M06/M09 A2979 RMK AO2 SLP095 T10611094 11022 21061 52003 TSNO

10-Day Weather Forecast

Almanac

Astronomy

Feb. 10, 2016 Rise Set
Actual Time
Civil Twilight
Nautical Twilight
Astronomical Twilight
Moon
Length of Visible Light
Length of Day
Tomorrow will be .
, % of the Moon is Illuminated

Today's Extremes

State Highs State Lows

Community

WunderPhotos

Upload Photos

1,891,826 photos uploaded!

WunderBlog® & News

Nearby

Air Quality

  Air Quality AQ Index Pollutant
Not available.

Snow Depth

Station Depth Elevation

Earthquake Activity

City Distance Mag. Time & Date
Minimum magnitude displayed is 2.5.

Coastal Water Temperatures

Place Temperature

Stations

Nearby Weather Stations

Station Location Temp. Windchill Dew Point Humidity Wind Precip. Elev Updated Type
                   

Watches & Warnings

There are currently no watches in effect.